Time;durP1;ratioP1;P1;durP2;ratioP2;P2;SDS_P1;SDS_P2;PMS_P1;PMS_P2;Temp;Humidity;BMP_temperature;BMP_pressure;BME280_temperature;BME280_humidity;BME280_pressure;Samples;Min_cycle;Max_cycle;Signal;HPM_P1;HPM_P2
2022/09/23 00:00:29;;;;;;;24.83;19.90;;;;;;;9.08;91.80;101685.84;5013061;28;20072;-61
2022/09/23 00:02:55;;;;;;;25.42;19.17;;;;;;;9.10;91.59;101691.13;5012585;28;20026;-60
2022/09/23 00:05:20;;;;;;;26.33;19.92;;;;;;;9.09;91.01;101694.97;5015635;28;20052;-60
2022/09/23 00:07:45;;;;;;;26.02;19.70;;;;;;;9.09;91.31;101682.00;5016567;28;20022;-60
2022/09/23 00:10:10;;;;;;;27.92;19.48;;;;;;;9.09;91.09;101683.94;5016308;28;20104;-60
2022/09/23 00:12:36;;;;;;;25.25;19.92;;;;;;;9.09;91.36;101694.97;5015995;28;20107;-61
2022/09/23 00:15:02;;;;;;;25.83;20.00;;;;;;;9.07;91.05;101684.19;5015985;28;20026;-60
2022/09/23 00:17:29;;;;;;;26.80;19.55;;;;;;;9.04;91.26;101671.78;5015548;28;20382;-60
2022/09/23 00:19:55;;;;;;;24.83;19.17;;;;;;;9.08;91.12;101688.59;5016330;28;20030;-60
2022/09/23 00:22:20;;;;;;;25.45;19.42;;;;;;;9.04;90.43;101679.25;5015776;28;20036;-61
2022/09/23 00:24:46;;;;;;;25.52;19.13;;;;;;;9.05;90.91;101673.44;5015984;28;20424;-61
2022/09/23 00:27:11;;;;;;;24.85;19.00;;;;;;;9.02;91.17;101675.91;5016455;28;20100;-59
2022/09/23 00:29:36;;;;;;;24.92;19.38;;;;;;;8.94;91.49;101673.72;5015892;28;20453;-62
2022/09/23 00:32:03;;;;;;;24.67;19.38;;;;;;;8.92;91.66;101673.16;5015986;28;20513;-61
2022/09/23 00:34:28;;;;;;;23.85;18.73;;;;;;;8.90;91.75;101670.69;5016091;28;20061;-61
2022/09/23 00:36:55;;;;;;;23.98;18.77;;;;;;;8.87;91.74;101666.53;5016038;28;20022;-61
2022/09/23 00:39:22;;;;;;;24.90;19.10;;;;;;;8.87;91.79;101663.78;5015974;28;20066;-61
2022/09/23 00:41:47;;;;;;;25.88;19.83;;;;;;;8.81;92.15;101662.09;5015808;28;20026;-61
2022/09/23 00:44:40;;;;;;;23.27;18.98;;;;;;;8.85;92.44;101671.50;5015825;28;20030;-61
2022/09/23 00:47:15;;;;;;;24.80;19.25;;;;;;;8.80;92.58;101663.19;5015796;28;20033;-60
2022/09/23 00:49:40;;;;;;;24.92;19.85;;;;;;;8.70;92.29;101665.94;5015899;28;20409;-61
2022/09/23 00:52:12;;;;;;;25.30;19.88;;;;;;;8.66;92.57;101660.16;5015550;28;20028;-61
2022/09/23 00:54:37;;;;;;;24.67;19.00;;;;;;;8.62;92.72;101669.25;5015874;28;20025;-61
2022/09/23 00:57:04;;;;;;;28.42;21.02;;;;;;;8.52;93.10;101654.31;5015626;28;20399;-61
2022/09/23 00:59:31;;;;;;;26.52;20.25;;;;;;;8.47;93.82;101645.19;5015867;28;20049;-61
2022/09/23 01:01:57;;;;;;;25.40;19.42;;;;;;;8.46;93.74;101646.28;5015730;28;20038;-60
2022/09/23 01:04:25;;;;;;;26.00;20.30;;;;;;;8.42;93.82;101655.13;5015557;28;20128;-61
2022/09/23 01:06:50;;;;;;;23.77;19.90;;;;;;;8.39;94.03;101650.13;5015401;28;20161;-62
2022/09/23 01:09:17;;;;;;;24.38;19.48;;;;;;;8.36;93.97;101650.66;5015514;28;20109;-62
2022/09/23 01:12:05;;;;;;;24.92;20.55;;;;;;;8.33;94.53;101647.63;5015559;28;20457;-61
2022/09/23 01:14:51;;;;;;;26.58;19.40;;;;;;;8.31;94.60;101644.34;5007049;28;20042;-61
2022/09/23 01:17:38;;;;;;;25.98;20.38;;;;;;;8.27;94.77;101649.53;5015022;28;20053;-61
2022/09/23 01:20:40;;;;;;;26.38;20.75;;;;;;;8.22;94.96;101641.25;5015466;28;20095;-61
2022/09/23 01:23:09;;;;;;;24.75;19.77;;;;;;;8.20;94.71;101651.72;5015335;28;20132;-61
2022/09/23 01:25:54;;;;;;;24.98;19.50;;;;;;;8.18;95.42;101649.25;5015016;28;20033;-62
2022/09/23 01:28:41;;;;;;;27.67;20.73;;;;;;;8.14;95.45;101650.88;5015042;28;20473;-61
2022/09/23 01:31:13;;;;;;;24.95;19.90;;;;;;;8.10;95.19;101647.00;5015467;28;20033;-62
2022/09/23 01:33:51;;;;;;;24.50;19.90;;;;;;;8.03;95.82;101647.25;5015363;28;20406;-60
2022/09/23 01:36:26;;;;;;;25.38;20.60;;;;;;;8.03;96.10;101643.69;5015211;28;20117;-61
2022/09/23 01:39:11;;;;;;;24.60;18.70;;;;;;;8.00;95.69;101635.94;5015174;28;20037;-62
2022/09/23 01:42:16;;;;;;;26.67;20.35;;;;;;;7.96;96.17;101636.47;5014486;28;20025;-61
2022/09/23 01:44:47;;;;;;;25.13;19.08;;;;;;;7.94;96.09;101633.16;4996781;28;20045;-61
2022/09/23 01:47:29;;;;;;;27.75;19.83;;;;;;;7.92;96.14;101632.63;5014934;28;20025;-61
2022/09/23 01:50:55;;;;;;;26.98;20.52;;;;;;;7.85;96.52;101632.00;5014618;28;20030;-61
2022/09/23 01:52:58;;;;;;;25.40;19.63;;;;;;;7.82;96.51;101624.31;5014349;28;20040;-61
2022/09/23 01:55:34;;;;;;;25.35;19.25;;;;;;;7.83;96.92;101630.63;5014622;28;20049;-61
2022/09/23 01:58:21;;;;;;;24.65;18.83;;;;;;;7.84;96.71;101622.09;5014737;28;20026;-60
2022/09/23 02:01:00;;;;;;;26.73;19.15;;;;;;;7.86;96.46;101627.34;5014473;28;20037;-60
2022/09/23 02:03:32;;;;;;;24.60;18.88;;;;;;;7.81;96.84;101619.88;5014649;28;20025;-60
2022/09/23 02:06:05;;;;;;;24.35;19.30;;;;;;;7.87;97.18;101624.31;5014633;28;20029;-60
2022/09/23 02:08:36;;;;;;;25.75;19.80;;;;;;;7.88;96.93;101633.44;5014831;28;20369;-61
2022/09/23 02:11:12;;;;;;;25.45;19.35;;;;;;;7.87;96.82;101621.56;5014592;28;20038;-61
2022/09/23 02:13:51;;;;;;;25.40;19.45;;;;;;;7.91;96.76;101628.19;5014268;28;20058;-61
2022/09/23 02:16:26;;;;;;;25.98;19.38;;;;;;;7.90;97.15;101621.03;5014398;28;20034;-61
2022/09/23 02:18:57;;;;;;;24.85;18.95;;;;;;;7.92;96.91;101627.09;5014066;28;20061;-62
2022/09/23 02:21:26;;;;;;;24.90;18.88;;;;;;;7.91;96.72;101619.94;5013582;28;20109;-60
2022/09/23 02:24:01;;;;;;;24.98;19.20;;;;;;;7.93;96.74;101615.00;5014448;28;20037;-60
2022/09/23 02:26:39;;;;;;;25.48;19.35;;;;;;;7.94;96.78;101615.81;5028728;28;20374;-60
2022/09/23 02:29:43;;;;;;;25.52;18.45;;;;;;;7.96;97.02;101610.88;5014161;28;20481;-60
2022/09/23 02:32:21;;;;;;;24.67;18.73;;;;;;;7.90;96.84;101612.78;5011687;28;20722;-60
2022/09/23 02:34:59;;;;;;;24.40;19.20;;;;;;;7.89;97.47;101608.34;5013912;28;20092;-60
2022/09/23 02:37:34;;;;;;;25.55;19.23;;;;;;;7.87;97.21;101609.72;5014033;28;20030;-60
2022/09/23 02:40:02;;;;;;;24.50;19.13;;;;;;;7.83;97.50;101597.56;5014347;28;20129;-60
2022/09/23 02:42:40;;;;;;;24.90;18.83;;;;;;;7.81;97.59;101601.41;5013606;28;20105;-60
2022/09/23 02:45:06;;;;;;;24.80;18.80;;;;;;;7.80;97.55;101593.44;5013635;28;20080;-60
2022/09/23 02:47:35;;;;;;;25.58;18.60;;;;;;;7.72;97.75;101586.50;5014034;28;20041;-60
2022/09/23 02:50:00;;;;;;;26.40;19.85;;;;;;;7.75;97.69;101587.88;5013592;28;20037;-60
2022/09/23 02:52:26;;;;;;;25.05;19.58;;;;;;;7.71;97.06;101589.53;5013772;28;20101;-61
2022/09/23 02:54:51;;;;;;;26.75;20.50;;;;;;;7.68;97.84;101596.41;5013862;28;20061;-61
2022/09/23 02:57:16;;;;;;;25.02;19.92;;;;;;;7.60;98.04;101572.16;5013905;28;20076;-62
2022/09/23 02:59:42;;;;;;;24.52;19.73;;;;;;;7.62;98.11;101579.03;5013463;28;20049;-62
2022/09/23 03:02:22;;;;;;;24.40;19.25;;;;;;;7.58;98.27;101580.66;5013447;28;20018;-61
2022/09/23 03:05:00;;;;;;;26.42;19.90;;;;;;;7.53;98.52;101568.78;5013814;28;20049;-62
2022/09/23 03:08:04;;;;;;;26.23;20.08;;;;;;;7.52;98.82;101565.22;5028771;28;20037;-61
2022/09/23 03:10:48;;;;;;;26.17;19.67;;;;;;;7.51;99.02;101568.25;5011673;28;20048;-62
2022/09/23 03:13:28;;;;;;;;;;;;;;;7.52;97.35;101570.72;5013842;28;20030;-62
2022/09/23 03:15:59;;;;;;;25.13;19.20;;;;;;;7.46;98.65;101566.31;5013336;28;19914;-62
2022/09/23 03:18:39;;;;;;;26.27;19.77;;;;;;;7.44;98.79;101574.00;5013518;28;20050;-62
2022/09/23 03:21:09;;;;;;;24.63;19.85;;;;;;;7.39;98.95;101565.69;5013305;28;20534;-61
2022/09/23 03:23:38;;;;;;;25.55;19.80;;;;;;;7.38;99.14;101564.03;5013530;28;20034;-61
2022/09/23 03:26:10;;;;;;;27.02;19.88;;;;;;;7.33;99.38;101562.91;5027976;28;20026;-62
2022/09/23 03:28:37;;;;;;;25.33;19.50;;;;;;;7.31;99.28;101565.09;5013075;28;20111;-61
2022/09/23 03:31:03;;;;;;;26.10;19.30;;;;;;;7.28;99.70;101562.88;5012801;28;20343;-62
2022/09/23 03:33:30;;;;;;;25.85;19.10;;;;;;;7.26;99.57;101561.50;5013019;28;20022;-62
2022/09/23 03:38:53;;;;;;;25.80;20.02;;;;;;;7.20;99.49;101555.13;5013558;28;20095;-61
2022/09/23 03:41:35;;;;;;;26.40;20.40;;;;;;;7.21;100.00;101559.53;5013143;28;20030;-61
2022/09/23 03:44:00;;;;;;;28.25;21.10;;;;;;;7.21;99.88;101551.28;5013070;28;20523;-61
2022/09/23 03:46:28;;;;;;;24.95;20.50;;;;;;;7.21;100.00;101554.03;5017232;28;20109;-61
2022/09/23 03:49:08;;;;;;;22.85;17.75;;;;;;;7.21;99.22;101562.28;5014591;28;20128;-61
2022/09/23 03:51:33;;;;;;;25.50;20.10;;;;;;;7.24;99.56;101555.41;5013321;28;20030;-61
2022/09/23 03:53:58;;;;;;;26.60;20.33;;;;;;;7.24;100.00;101553.50;5013406;28;20454;-61
2022/09/23 03:56:24;;;;;;;26.63;19.70;;;;;;;7.26;100.00;101543.06;5013037;28;20060;-61
2022/09/23 03:58:49;;;;;;;25.70;19.85;;;;;;;7.27;100.00;101549.38;5013120;28;20021;-61
2022/09/23 04:01:15;;;;;;;25.13;19.38;;;;;;;7.28;100.00;101542.78;5012742;28;20033;-61
2022/09/23 04:03:40;;;;;;;24.80;19.67;;;;;;;7.29;100.00;101541.69;5015446;28;20329;-61
2022/09/23 04:06:06;;;;;;;25.27;19.45;;;;;;;7.28;100.00;101540.03;5012456;28;20034;-61
2022/09/23 04:08:31;;;;;;;25.95;19.17;;;;;;;7.28;100.00;101542.78;5012717;28;20068;-61
2022/09/23 04:11:00;;;;;;;25.20;20.25;;;;;;;7.27;100.00;101544.72;5012418;28;20481;-61
2022/09/23 04:13:26;;;;;;;26.13;18.95;;;;;;;7.26;100.00;101537.56;5012723;28;20022;-61
2022/09/23 04:15:52;;;;;;;26.13;19.08;;;;;;;7.28;100.00;101548.31;5012457;28;20030;-61
2022/09/23 04:18:17;;;;;;;24.90;18.75;;;;;;;7.28;100.00;101545.53;5012335;28;20077;-61
2022/09/23 04:20:43;;;;;;;24.70;19.13;;;;;;;7.27;100.00;101550.25;5012219;28;20401;-61
2022/09/23 04:23:08;;;;;;;25.67;19.02;;;;;;;7.29;99.84;101548.03;5012576;28;20034;-61
2022/09/23 04:25:33;;;;;;;24.58;18.83;;;;;;;7.28;100.00;101540.03;5012439;28;20026;-61
2022/09/23 04:27:58;;;;;;;26.08;19.23;;;;;;;7.24;100.00;101536.16;5011998;28;20103;-61
2022/09/23 04:30:24;;;;;;;25.10;19.10;;;;;;;7.27;99.95;101546.63;5012058;28;20033;-62
2022/09/23 04:32:51;;;;;;;24.70;18.85;;;;;;;7.26;100.00;101540.31;5012198;28;20033;-61
2022/09/23 04:35:16;;;;;;;24.58;19.10;;;;;;;7.25;100.00;101541.41;5012717;28;20030;-61
2022/09/23 04:37:41;;;;;;;24.58;18.63;;;;;;;7.25;100.00;101538.66;5011966;28;20446;-62
2022/09/23 04:40:08;;;;;;;26.17;19.50;;;;;;;7.23;100.00;101540.84;5012073;28;20109;-61
2022/09/23 04:42:33;;;;;;;26.48;19.02;;;;;;;7.23;100.00;101542.75;5012449;28;20028;-61
2022/09/23 04:44:58;;;;;;;23.88;18.65;;;;;;;7.22;100.00;101544.69;5012454;28;20392;-61
2022/09/23 04:47:24;;;;;;;24.25;18.65;;;;;;;7.23;100.00;101545.50;5012570;28;20092;-62
2022/09/23 04:49:49;;;;;;;24.27;18.98;;;;;;;7.24;100.00;101538.91;5012304;28;20022;-62
2022/09/23 04:52:14;;;;;;;26.00;18.83;;;;;;;7.24;100.00;101533.41;5015797;28;20026;-61
2022/09/23 04:54:40;;;;;;;24.63;19.17;;;;;;;7.26;100.00;101540.31;5015548;28;20040;-61
2022/09/23 04:57:06;;;;;;;24.63;19.02;;;;;;;7.26;100.00;101534.81;5015793;28;20072;-61
2022/09/23 04:59:31;;;;;;;25.75;20.02;;;;;;;7.26;100.00;101533.97;5015354;28;20029;-61
2022/09/23 05:01:56;;;;;;;24.83;18.65;;;;;;;7.27;100.00;101533.72;5014819;28;20529;-62
2022/09/23 05:04:22;;;;;;;24.75;18.25;;;;;;;7.27;100.00;101538.38;5015148;28;20030;-61
2022/09/23 05:06:48;;;;;;;25.45;19.02;;;;;;;7.28;100.00;101538.09;5015449;28;20473;-61
2022/09/23 05:09:18;;;;;;;24.63;18.88;;;;;;;7.29;99.87;101534.25;5015720;28;20032;-60
2022/09/23 05:11:44;;;;;;;25.67;19.27;;;;;;;7.29;99.78;101531.50;5015406;28;20033;-60
2022/09/23 05:14:10;;;;;;;24.95;18.75;;;;;;;7.33;100.00;101538.16;5015018;28;20026;-60
2022/09/23 05:16:35;;;;;;;25.05;18.33;;;;;;;7.35;99.47;101532.38;5014913;28;20108;-60
2022/09/23 05:19:02;;;;;;;24.58;18.70;;;;;;;7.37;99.33;101532.13;5015253;28;20046;-60
2022/09/23 05:21:27;;;;;;;23.98;18.83;;;;;;;7.37;99.59;101529.38;5015043;28;20022;-60
2022/09/23 05:23:57;;;;;;;26.63;19.77;;;;;;;7.34;99.35;101530.72;5013676;28;20032;-59
2022/09/23 05:26:24;;;;;;;32.47;23.63;;;;;;;7.38;99.22;101548.34;5015057;28;20420;-61
2022/09/23 05:28:50;;;;;;;28.70;21.40;;;;;;;7.37;99.18;101540.38;5014665;28;20056;-61
2022/09/23 05:31:18;;;;;;;41.67;21.38;;;;;;;7.37;99.44;101541.19;5013376;28;20038;-60
2022/09/23 05:33:46;;;;;;;27.15;19.30;;;;;;;7.36;99.50;101536.78;5015448;28;20026;-61
2022/09/23 05:36:12;;;;;;;28.90;21.08;;;;;;;7.38;99.69;101542.00;5014812;28;20057;-61
2022/09/23 05:38:39;;;;;;;30.17;20.23;;;;;;;7.39;99.61;101539.00;5014916;28;20041;-61
2022/09/23 05:41:07;;;;;;;27.70;20.20;;;;;;;7.45;99.81;101542.63;5029832;28;20369;-61
2022/09/23 05:43:33;;;;;;;25.75;18.90;;;;;;;7.46;99.72;101549.78;5013771;28;20029;-60
2022/09/23 05:46:06;;;;;;;25.98;18.35;;;;;;;7.47;99.68;101545.91;5014137;28;20105;-62
2022/09/23 05:48:32;;;;;;;24.80;19.23;;;;;;;7.50;99.53;101548.13;5014328;28;20030;-61
2022/09/23 05:50:59;;;;;;;24.88;18.70;;;;;;;7.52;99.50;101551.47;5014285;28;20030;-61
2022/09/23 05:53:25;;;;;;;24.77;18.10;;;;;;;7.54;99.42;101549.25;5014414;28;20033;-61
2022/09/23 05:55:53;;;;;;;24.88;17.83;;;;;;;7.57;99.11;101545.97;5014201;28;20076;-60
2022/09/23 05:58:18;;;;;;;25.90;17.67;;;;;;;7.62;99.22;101550.66;5013988;28;20026;-60
2022/09/23 06:00:43;;;;;;;23.50;17.02;;;;;;;7.67;98.93;101556.22;5013915;28;20322;-61
2022/09/23 06:03:13;;;;;;;22.88;17.58;;;;;;;7.72;98.73;101547.13;5012802;28;20106;-60
2022/09/23 06:05:39;;;;;;;23.73;17.50;;;;;;;7.75;98.62;101552.09;5029148;28;20354;-61
2022/09/23 06:08:05;;;;;;;23.50;16.58;;;;;;;7.78;98.27;101546.88;5013795;28;20117;-60
2022/09/23 06:10:39;;;;;;;22.70;17.23;;;;;;;7.83;98.09;101554.34;5014265;28;20026;-61
2022/09/23 06:13:04;;;;;;;;;;;;;;;7.91;97.58;101551.06;5014292;28;20026;-61
2022/09/23 06:15:31;;;;;;;24.17;16.52;;;;;;;7.92;97.70;101549.97;5014427;28;19913;-60
2022/09/23 06:17:56;;;;;;;22.58;16.60;;;;;;;7.96;97.61;101542.78;5013895;28;20501;-60
2022/09/23 06:20:22;;;;;;;23.58;17.25;;;;;;;8.03;97.34;101541.72;5013835;28;20030;-60
2022/09/23 06:22:47;;;;;;;23.85;17.42;;;;;;;8.06;97.33;101535.66;5013621;28;20389;-60
2022/09/23 06:25:12;;;;;;;23.33;16.75;;;;;;;8.13;97.36;101530.69;5013809;28;20080;-61
2022/09/23 06:27:37;;;;;;;24.45;17.13;;;;;;;8.19;97.10;101534.28;5013482;28;20026;-60
2022/09/23 06:30:05;;;;;;;23.55;17.30;;;;;;;8.22;96.78;101534.56;5013367;28;20030;-61
2022/09/23 06:32:31;;;;;;;23.50;16.67;;;;;;;8.27;96.55;101547.53;5028734;28;20113;-60
2022/09/23 06:34:56;;;;;;;23.60;16.67;;;;;;;8.30;96.46;101540.66;5013721;28;20068;-61
2022/09/23 06:37:23;;;;;;;23.60;16.33;;;;;;;8.35;96.36;101543.41;5013347;28;20037;-60
2022/09/23 06:39:48;;;;;;;24.42;17.20;;;;;;;8.38;96.02;101543.69;5013405;28;20056;-60
2022/09/23 06:42:14;;;;;;;23.77;17.15;;;;;;;8.43;96.05;101537.38;5013448;28;20034;-60
2022/09/23 06:44:39;;;;;;;23.33;16.20;;;;;;;8.51;96.02;101534.09;5013113;28;20021;-61
2022/09/23 06:47:05;;;;;;;24.80;16.20;;;;;;;8.55;95.75;101526.94;5013505;28;20026;-60
2022/09/23 06:49:30;;;;;;;23.40;15.63;;;;;;;8.63;95.21;101527.47;5013346;28;20038;-60
2022/09/23 06:51:55;;;;;;;24.17;16.92;;;;;;;8.71;95.05;101529.66;5013419;28;20493;-57
2022/09/23 06:54:21;;;;;;;23.50;16.58;;;;;;;8.78;94.91;101530.25;5013318;28;20038;-60
2022/09/23 06:56:46;;;;;;;24.50;15.13;;;;;;;8.83;94.72;101534.94;5013194;28;20084;-60
2022/09/23 06:59:15;;;;;;;24.58;16.02;;;;;;;8.85;94.71;101530.78;5010731;28;20033;-61
2022/09/23 07:01:42;;;;;;;22.85;15.70;;;;;;;8.86;94.45;101532.44;5001428;28;20030;-61
2022/09/23 07:04:10;;;;;;;22.63;15.57;;;;;;;8.92;94.19;101535.19;4992103;28;20056;-62
2022/09/23 07:06:36;;;;;;;22.17;15.25;;;;;;;8.96;94.07;101528.81;4991796;28;20030;-60
2022/09/23 07:09:02;;;;;;;23.83;15.80;;;;;;;9.04;94.19;101531.00;4992024;28;20033;-60
2022/09/23 07:11:28;;;;;;;23.80;15.52;;;;;;;9.11;93.98;101525.22;5007116;28;20034;-60
2022/09/23 07:13:53;;;;;;;24.67;15.20;;;;;;;9.19;93.86;101534.88;4991930;28;20048;-60
2022/09/23 07:16:19;;;;;;;21.92;16.05;;;;;;;9.27;93.02;101536.19;4992203;28;20022;-60
2022/09/23 07:18:45;;;;;;;24.35;16.27;;;;;;;9.32;92.69;101536.19;5014192;28;20037;-61
2022/09/23 07:21:14;;;;;;;23.42;16.27;;;;;;;9.39;92.39;101538.69;5012167;28;20441;-59
2022/09/23 07:23:41;;;;;;;22.85;15.55;;;;;;;9.44;91.94;101533.13;5010307;28;20057;-58
2022/09/23 07:26:07;;;;;;;22.55;15.98;;;;;;;9.55;92.20;101533.91;5012019;28;20073;-60
2022/09/23 07:28:33;;;;;;;23.45;17.42;;;;;;;9.66;91.99;101543.81;5011389;28;20036;-59
2022/09/23 07:31:05;;;;;;;24.20;15.80;;;;;;;9.78;91.48;101537.94;5011229;28;20029;-59
2022/09/23 07:33:31;;;;;;;22.52;15.57;;;;;;;9.87;90.85;101532.66;5011230;28;20029;-60
2022/09/23 07:35:56;;;;;;;21.63;15.45;;;;;;;9.94;90.39;101525.72;5011397;28;20052;-62
2022/09/23 07:38:28;;;;;;;24.60;16.20;;;;;;;10.06;89.77;101528.13;5010358;28;20026;-63
2022/09/23 07:40:59;;;;;;;21.92;15.88;;;;;;;10.15;89.78;101537.47;5011308;28;20041;-62
2022/09/23 07:43:27;;;;;;;23.98;16.17;;;;;;;10.21;89.02;101532.72;5011304;28;20184;-59
2022/09/23 07:45:53;;;;;;;23.05;16.42;;;;;;;10.24;89.43;101526.63;5011579;28;20117;-61
2022/09/23 07:48:19;;;;;;;23.25;16.40;;;;;;;10.32;88.73;101539.00;5011268;28;20048;-62
2022/09/23 07:50:44;;;;;;;21.85;15.90;;;;;;;10.41;88.63;101536.50;5011105;28;20465;-62
2022/09/23 07:53:09;;;;;;;23.65;16.15;;;;;;;10.47;88.32;101529.00;5011024;28;20512;-61
2022/09/23 07:55:35;;;;;;;23.40;16.02;;;;;;;10.54;88.78;101523.94;5011280;28;20032;-61
2022/09/23 07:58:00;;;;;;;22.52;15.73;;;;;;;10.68;88.24;101526.88;5010980;28;20095;-61
2022/09/23 08:00:25;;;;;;;23.35;16.30;;;;;;;10.85;88.27;101529.22;5011244;28;20022;-61
2022/09/23 08:02:51;;;;;;;23.73;16.40;;;;;;;10.97;86.53;101526.88;5011289;28;20053;-61
2022/09/23 08:05:16;;;;;;;24.52;15.95;;;;;;;11.08;86.64;101528.41;5011631;28;20033;-60
2022/09/23 08:07:42;;;;;;;21.80;15.40;;;;;;;11.19;85.27;101531.91;5011715;28;20034;-61
2022/09/23 08:10:08;;;;;;;23.25;16.00;;;;;;;11.28;85.19;101534.88;5011563;28;20114;-62
2022/09/23 08:12:34;;;;;;;22.77;15.18;;;;;;;11.38;83.94;101534.75;5010739;28;20026;-60
2022/09/23 08:14:59;;;;;;;23.60;15.20;;;;;;;11.45;83.69;101531.63;5010992;28;20037;-61
2022/09/23 08:17:25;;;;;;;21.73;15.13;;;;;;;11.51;82.96;101541.53;5025387;28;20049;-60
2022/09/23 08:19:50;;;;;;;23.27;15.13;;;;;;;11.55;83.08;101534.28;5009874;28;20109;-60
2022/09/23 08:22:16;;;;;;;23.30;15.05;;;;;;;11.64;82.45;101537.19;5010543;28;20054;-61
2022/09/23 08:24:41;;;;;;;24.05;15.80;;;;;;;11.73;82.81;101544.84;5010838;28;20351;-61
2022/09/23 08:27:06;;;;;;;22.30;15.52;;;;;;;11.80;83.05;101537.84;5014338;28;20488;-60
2022/09/23 08:29:32;;;;;;;23.73;16.38;;;;;;;11.84;81.77;101536.13;5014000;28;20038;-60
2022/09/23 08:31:58;;;;;;;22.95;16.30;;;;;;;11.92;81.86;101533.81;5013762;28;20504;-61
2022/09/23 08:34:26;;;;;;;32.47;18.00;;;;;;;11.94;82.14;101526.03;5028911;28;20071;-60
2022/09/23 08:36:51;;;;;;;32.10;17.05;;;;;;;12.11;81.34;101536.59;5014249;28;20030;-62
2022/09/23 08:39:18;;;;;;;23.02;16.25;;;;;;;12.16;80.94;101540.13;5014526;28;20076;-61
2022/09/23 08:41:52;;;;;;;23.20;16.65;;;;;;;12.23;80.49;101537.00;5014300;28;20068;-61
2022/09/23 08:44:30;;;;;;;25.08;16.55;;;;;;;12.29;80.48;101544.09;5029384;28;20030;-62
2022/09/23 08:46:58;;;;;;;23.90;16.00;;;;;;;12.31;79.68;101550.19;5029189;28;20030;-62
2022/09/23 08:49:56;;;;;;;23.67;16.35;;;;;;;12.41;81.13;101540.88;5014323;28;20032;-61
2022/09/23 08:52:24;;;;;;;23.10;16.38;;;;;;;12.53;80.30;101543.19;5012274;28;20476;-61
2022/09/23 08:54:50;;;;;;;23.40;16.65;;;;;;;12.66;80.74;101536.03;5014178;28;20026;-61
2022/09/23 08:57:44;;;;;;;23.98;16.52;;;;;;;12.68;80.03;101519.91;5014090;28;20026;-62
2022/09/23 09:00:18;;;;;;;24.23;17.25;;;;;;;12.91;79.40;101540.31;5029406;28;20078;-60
2022/09/23 09:02:44;;;;;;;22.85;16.40;;;;;;;13.04;78.73;101532.31;5013618;28;20044;-61
2022/09/23 09:05:11;;;;;;;23.17;16.15;;;;;;;13.15;78.74;101531.00;5014111;28;20033;-61
2022/09/23 09:07:40;;;;;;;23.08;16.92;;;;;;;13.23;78.10;101533.06;5004241;28;20077;-61
2022/09/23 09:10:23;;;;;;;23.23;16.92;;;;;;;13.35;77.88;101528.94;5005404;28;20034;-61
2022/09/23 09:13:09;;;;;;;23.60;16.88;;;;;;;13.41;78.58;101519.44;5003978;28;20060;-62
2022/09/23 09:15:47;;;;;;;24.33;16.45;;;;;;;13.63;76.64;101523.41;5024657;28;20483;-61
2022/09/23 09:18:20;;;;;;;23.50;17.02;;;;;;;13.78;76.41;101522.25;5013601;28;20061;-61
2022/09/23 09:20:56;;;;;;;23.33;16.65;;;;;;;13.89;75.33;101518.94;5028167;28;20034;-61
2022/09/23 09:23:37;;;;;;;24.80;16.73;;;;;;;14.07;75.29;101524.69;5013948;28;20034;-60
2022/09/23 09:26:05;;;;;;;22.70;16.40;;;;;;;14.18;74.43;101517.72;5013765;28;20482;-61
2022/09/23 09:28:34;;;;;;;23.38;16.65;;;;;;;14.32;74.34;101514.06;5013453;28;20071;-60
2022/09/23 09:31:04;;;;;;;24.00;16.73;;;;;;;14.44;74.13;101522.69;5013508;28;20102;-59
2022/09/23 09:34:00;;;;;;;25.48;16.85;;;;;;;14.63;75.47;101511.34;5013995;28;20049;-60
2022/09/23 09:36:35;;;;;;;22.88;16.02;;;;;;;14.75;73.69;101513.56;4992393;28;20507;-61
2022/09/23 09:39:01;;;;;;;25.45;16.13;;;;;;;14.86;72.40;101524.44;5012333;28;20030;-61
2022/09/23 09:41:30;;;;;;;22.80;16.00;;;;;;;14.92;70.86;101507.28;5013663;28;20381;-60
2022/09/23 09:43:58;;;;;;;24.13;15.98;;;;;;;15.09;71.57;101500.16;5014125;28;20575;-61
2022/09/23 09:46:36;;;;;;;22.40;16.05;;;;;;;15.18;71.08;101494.63;5014457;28;20144;-61
2022/09/23 09:49:10;;;;;;;23.40;16.52;;;;;;;15.27;68.42;101504.66;5029728;28;20466;-60
2022/09/23 09:51:36;;;;;;;25.33;16.60;;;;;;;15.36;69.98;101496.31;5013393;28;20137;-60
2022/09/23 09:54:22;;;;;;;25.73;17.40;;;;;;;15.43;70.81;101496.66;5028704;28;20425;-60
2022/09/23 09:56:48;;;;;;;23.05;15.30;;;;;;;15.48;66.94;101500.47;5028314;28;20025;-60
2022/09/23 09:59:26;;;;;;;21.92;15.57;;;;;;;15.52;68.93;101487.50;5013201;28;20052;-59
2022/09/23 10:02:20;;;;;;;23.83;15.45;;;;;;;15.60;68.93;101492.28;5013055;28;20064;-60
2022/09/23 10:04:54;;;;;;;24.67;15.32;;;;;;;15.69;68.76;101495.91;5013061;28;20113;-61
2022/09/23 10:07:24;;;;;;;23.52;15.75;;;;;;;15.74;67.67;101479.03;5013057;28;20040;-60
2022/09/23 10:09:50;;;;;;;22.35;15.52;;;;;;;15.87;66.67;101479.25;5013195;28;20029;-60
2022/09/23 10:12:18;;;;;;;21.90;15.38;;;;;;;15.93;66.30;101483.50;5012836;28;20512;-60
2022/09/23 10:14:45;;;;;;;23.75;15.65;;;;;;;16.11;66.97;101483.50;5012996;28;20073;-60
2022/09/23 10:17:19;;;;;;;21.38;15.10;;;;;;;16.14;66.43;101480.88;5012644;28;20104;-60
2022/09/23 10:19:48;;;;;;;24.45;15.10;;;;;;;16.17;65.60;101473.81;5012277;28;20103;-60
2022/09/23 10:22:28;;;;;;;28.77;15.23;;;;;;;16.34;66.30;101482.16;5013365;28;20037;-60
2022/09/23 10:24:57;;;;;;;30.65;15.20;;;;;;;16.44;65.82;101474.59;5013267;28;20072;-61
2022/09/23 10:27:30;;;;;;;23.83;15.75;;;;;;;16.47;64.94;101480.38;5013316;28;20130;-62
2022/09/23 10:29:57;;;;;;;22.42;15.23;;;;;;;16.51;63.24;101484.13;5013361;28;20041;-60
2022/09/23 10:32:28;;;;;;;23.63;15.50;;;;;;;16.54;63.19;101485.44;5012852;28;20033;-61
2022/09/23 10:35:12;;;;;;;22.50;14.60;;;;;;;16.59;63.83;101484.44;5012474;28;20029;-61
2022/09/23 10:37:47;;;;;;;22.60;14.98;;;;;;;16.64;63.57;101476.69;5012730;28;20030;-61
2022/09/23 10:46:38;;;;;;;23.10;14.32;;;;;;;17.05;62.21;101482.84;5012292;28;20068;-60
2022/09/23 10:49:25;;;;;;;21.63;14.48;;;;;;;17.11;61.23;101480.69;5011742;28;20044;-61
2022/09/23 10:52:14;;;;;;;20.83;14.18;;;;;;;17.23;62.27;101471.59;5012003;28;20030;-61
2022/09/23 10:55:07;;;;;;;24.10;14.95;;;;;;;17.28;62.24;101474.19;5026958;28;20104;-61
2022/09/23 10:57:44;;;;;;;20.90;13.95;;;;;;;17.40;61.69;101479.06;5011631;28;20113;-60
2022/09/23 11:00:21;;;;;;;23.00;13.82;;;;;;;17.44;59.83;101468.84;5011664;28;20037;-60
2022/09/23 11:03:16;;;;;;;22.63;14.45;;;;;;;17.49;61.61;101473.44;5012000;28;20060;-60
2022/09/23 11:05:44;;;;;;;20.10;13.50;;;;;;;17.44;59.81;101466.06;5011779;28;20036;-60
2022/09/23 11:08:44;;;;;;;20.98;13.93;;;;;;;17.53;61.52;101475.22;5011463;28;20041;-61
2022/09/23 11:11:51;;;;;;;21.60;13.02;;;;;;;17.60;61.51;101457.91;5011753;28;20044;-62
2022/09/23 11:14:41;;;;;;;21.70;13.88;;;;;;;17.72;61.33;101471.13;5011636;28;20025;-60
2022/09/23 11:17:31;;;;;;;19.88;13.15;;;;;;;17.72;60.09;101465.53;5011447;28;20157;-60
2022/09/23 11:20:34;;;;;;;19.73;12.80;;;;;;;17.74;60.33;101464.03;5011226;28;20038;-62
2022/09/23 11:22:59;;;;;;;20.70;12.60;;;;;;;17.78;58.85;101459.41;5011455;28;20048;-62
2022/09/23 11:25:45;;;;;;;19.93;12.40;;;;;;;17.91;59.49;101453.88;4992307;28;20030;-61
2022/09/23 11:28:28;;;;;;;21.60;12.80;;;;;;;17.93;58.50;101455.19;4992549;28;20270;-62
2022/09/23 11:31:30;;;;;;;19.38;12.02;;;;;;;18.00;58.21;101451.03;4991981;28;20045;-61
2022/09/23 11:34:34;;;;;;;21.10;12.52;;;;;;;18.02;58.77;101445.91;4978960;28;20129;-60
2022/09/23 11:37:07;;;;;;;19.77;12.13;;;;;;;18.12;57.75;101451.09;4991705;28;20121;-61
2022/09/23 11:39:54;;;;;;;20.65;12.38;;;;;;;18.21;56.92;101445.41;4991724;28;20026;-59
2022/09/23 11:42:37;;;;;;;20.92;11.77;;;;;;;18.28;56.96;101445.66;5006903;28;20031;-60